BIVO/VPN METAR and TAF weather

Enter ICAO airport designator
Station Type Date Time Source
BIVO METAR 2021/08/04 15:00 UTC NOAA

BIVO 041500Z 04010KT 9999 SCT008 OVC012 11/10 Q1004


Station Type Date Time Source
BIVO Decoded METAR 2021/08/04 15:00 UTC NOAA

Skjaldthingsstadir, Iceland (BIVO) 65-42N 014-49W 48M
Aug 04, 2021 - 11:00 AM EDT / 2021.08.04 1500 UTC
Wind: from the NE (040 degrees) at 12 MPH (10 KT):0
Visibility: greater than 7 mile(s):0
Sky conditions: overcast
Temperature: 51 F (11 C)
Dew Point: 50 F (10 C)
Relative Humidity: 93%
Pressure (altimeter): 29.65 in. Hg (1004 hPa)
ob: BIVO 041500Z 04010KT 9999 SCT008 OVC012 11/10 Q1004
cycle: 15

Station Type Date Time Source
BIVO TAF UTC NOAA

Error!

Example: see airport list